createdAt,value
2023-02-16T00:00:34.986Z,97552.84
2023-02-16T00:03:04.960Z,97554.56
2023-02-16T00:05:35.190Z,97552.25
2023-02-16T00:08:04.136Z,97552.72
2023-02-16T00:10:34.632Z,97561.00
2023-02-16T00:13:35.899Z,97555.44
2023-02-16T00:16:04.413Z,97559.66
2023-02-16T00:18:34.856Z,97553.06
2023-02-16T00:21:03.461Z,97554.34
2023-02-16T00:23:31.936Z,97543.59
2023-02-16T00:26:01.531Z,97548.13
2023-02-16T00:28:30.193Z,97542.81
2023-02-16T00:30:59.141Z,97538.72
2023-02-16T00:33:28.155Z,97534.13
2023-02-16T00:35:57.914Z,97529.00
2023-02-16T00:38:27.054Z,97532.91
2023-02-16T00:40:56.272Z,97536.09
2023-02-16T00:43:28.623Z,97532.44
2023-02-16T00:45:57.383Z,97537.91
2023-02-16T00:48:26.095Z,97499.97
2023-02-16T00:50:55.190Z,97537.75
2023-02-16T00:53:25.749Z,97534.13
2023-02-16T00:55:54.875Z,97540.38
2023-02-16T00:58:26.946Z,97541.63
2023-02-16T01:00:57.349Z,97538.25
2023-02-16T01:03:28.789Z,97529.72
2023-02-16T01:06:12.460Z,97521.34
2023-02-16T01:09:00.776Z,97519.56
2023-02-16T01:11:30.030Z,97519.84
2023-02-16T01:14:00.263Z,97522.06
2023-02-16T01:16:36.912Z,97519.50
2023-02-16T01:19:05.908Z,97523.84
2023-02-16T01:21:34.704Z,97521.63
2023-02-16T01:24:07.541Z,97518.97
2023-02-16T01:26:40.603Z,97514.19
2023-02-16T01:29:15.520Z,97514.16
2023-02-16T01:31:45.053Z,97510.50
2023-02-16T01:34:14.050Z,97504.19
2023-02-16T01:36:47.461Z,97499.34
2023-02-16T01:39:20.598Z,97514.75
2023-02-16T01:42:00.869Z,97514.44
2023-02-16T01:44:35.806Z,97505.75
2023-02-16T01:47:12.206Z,97508.84
2023-02-16T01:49:41.392Z,97503.84
2023-02-16T01:52:20.184Z,97506.50
2023-02-16T01:54:54.884Z,97485.03
2023-02-16T01:57:31.104Z,97482.88
2023-02-16T02:00:22.951Z,97495.97
2023-02-16T02:03:15.704Z,97490.28
2023-02-16T02:05:44.837Z,97492.78
2023-02-16T02:08:23.253Z,97493.19
2023-02-16T02:11:04.400Z,97481.13
2023-02-16T02:13:43.031Z,97477.31
2023-02-16T02:16:12.604Z,97480.63
2023-02-16T02:18:42.225Z,97464.31
2023-02-16T02:21:44.980Z,97471.06
2023-02-16T02:24:46.432Z,97474.88
2023-02-16T02:27:23.657Z,97470.78
2023-02-16T02:30:09.790Z,97470.66
2023-02-16T02:32:56.061Z,97475.22
2023-02-16T02:35:37.561Z,97469.66
2023-02-16T02:38:13.267Z,97479.03
2023-02-16T02:40:55.642Z,97440.94
2023-02-16T02:43:32.270Z,97468.50
2023-02-16T02:46:08.842Z,97466.66
2023-02-16T02:48:37.670Z,97472.72
2023-02-16T02:51:31.120Z,97474.16
2023-02-16T02:54:25.194Z,97467.63
2023-02-16T02:57:19.478Z,97474.81
2023-02-16T03:00:14.423Z,97481.81
2023-02-16T03:02:44.712Z,97464.16
2023-02-16T03:05:16.142Z,97460.91
2023-02-16T03:07:48.882Z,97473.09
2023-02-16T03:10:39.925Z,97460.63
2023-02-16T03:13:13.841Z,97467.88
2023-02-16T03:15:48.286Z,97451.44
2023-02-16T03:18:35.449Z,97475.03
2023-02-16T03:21:23.564Z,97478.38
2023-02-16T03:24:09.994Z,97484.38
2023-02-16T03:26:56.916Z,97487.41
2023-02-16T03:29:28.346Z,97477.84
2023-02-16T03:31:59.176Z,97484.84
2023-02-16T03:34:29.975Z,97479.53
2023-02-16T03:37:00.841Z,97490.94
2023-02-16T03:39:31.664Z,97473.97
2023-02-16T03:42:00.053Z,97467.25
2023-02-16T03:44:28.407Z,97472.88
2023-02-16T03:46:58.935Z,97474.69
2023-02-16T03:49:27.320Z,97470.22
2023-02-16T03:51:56.501Z,97476.38
2023-02-16T03:54:24.836Z,97481.34
2023-02-16T03:56:53.682Z,97481.19
2023-02-16T03:59:22.025Z,97475.56
2023-02-16T04:01:51.140Z,97478.78
2023-02-16T04:04:20.921Z,97490.66
2023-02-16T04:06:49.298Z,97480.28
2023-02-16T04:09:18.473Z,97479.66
2023-02-16T04:12:04.421Z,97484.16
2023-02-16T04:14:33.641Z,97482.78
2023-02-16T04:17:03.437Z,97487.28
2023-02-16T04:19:34.164Z,97483.38
2023-02-16T04:22:02.489Z,97475.53
2023-02-16T04:24:31.594Z,97499.59
2023-02-16T04:27:00.357Z,97487.78
2023-02-16T04:29:29.311Z,97493.94
2023-02-16T04:31:57.841Z,97502.00
2023-02-16T04:34:26.290Z,97495.22
2023-02-16T04:36:57.557Z,97481.19
2023-02-16T04:39:25.950Z,97483.97
2023-02-16T04:41:54.961Z,97494.19
2023-02-16T04:44:23.342Z,97479.66
2023-02-16T04:46:52.875Z,97472.75
2023-02-16T04:49:21.732Z,97465.91
2023-02-16T04:51:50.494Z,97469.63
2023-02-16T04:54:20.702Z,97458.94
2023-02-16T04:56:49.550Z,97464.16
2023-02-16T04:59:18.353Z,97469.91
2023-02-16T05:01:46.753Z,97474.72
2023-02-16T05:04:16.872Z,97472.88
2023-02-16T05:06:45.250Z,97476.38
2023-02-16T05:09:14.490Z,97477.94
2023-02-16T05:12:01.570Z,97473.47
2023-02-16T05:14:46.075Z,97476.28
2023-02-16T05:17:16.528Z,97471.53
2023-02-16T05:19:47.562Z,97474.72
2023-02-16T05:22:16.604Z,97456.66
2023-02-16T05:24:46.746Z,97483.53
2023-02-16T05:27:18.241Z,97480.72
2023-02-16T05:29:47.434Z,97464.53
2023-02-16T05:32:16.715Z,97471.91
2023-02-16T05:34:45.579Z,97485.50
2023-02-16T05:37:15.676Z,97480.22
2023-02-16T05:39:44.022Z,97486.91
2023-02-16T05:42:13.073Z,97488.13
2023-02-16T05:44:42.872Z,97490.25
2023-02-16T05:47:11.740Z,97502.28
2023-02-16T05:49:40.085Z,97495.44
2023-02-16T05:52:09.472Z,97505.09
2023-02-16T05:54:37.811Z,97512.66
2023-02-16T05:57:06.532Z,97517.56
2023-02-16T05:59:35.134Z,97516.00
2023-02-16T06:02:05.733Z,97506.19
2023-02-16T06:04:34.035Z,97516.25
2023-02-16T06:07:02.626Z,97512.34
2023-02-16T06:09:31.356Z,97490.94
2023-02-16T06:12:00.476Z,97520.44
2023-02-16T06:14:29.317Z,97524.25
2023-02-16T06:16:58.837Z,97514.59
2023-02-16T06:19:29.589Z,97517.56
2023-02-16T06:21:57.911Z,97518.53
2023-02-16T06:24:28.461Z,97510.56
2023-02-16T06:26:57.159Z,97516.41
2023-02-16T06:29:26.040Z,97510.97
2023-02-16T06:31:54.561Z,97523.56
2023-02-16T06:34:24.134Z,97532.34
2023-02-16T06:36:53.844Z,97533.28
2023-02-16T06:39:22.649Z,97530.34
2023-02-16T06:41:51.204Z,97527.97
2023-02-16T06:44:20.020Z,97539.75
2023-02-16T06:46:49.735Z,97539.91
2023-02-16T06:49:19.679Z,97547.44
2023-02-16T06:51:50.830Z,97551.34
2023-02-16T06:54:20.725Z,97547.28
2023-02-16T06:56:49.057Z,97553.97
2023-02-16T06:59:17.463Z,97552.84
2023-02-16T07:01:46.236Z,97559.03
2023-02-16T07:04:16.240Z,97544.56
2023-02-16T07:06:45.034Z,97560.94
2023-02-16T07:09:13.960Z,97557.97
2023-02-16T07:11:43.642Z,97551.44
2023-02-16T07:14:12.640Z,97567.38
2023-02-16T07:16:41.107Z,97579.44
2023-02-16T07:19:10.892Z,97574.31
2023-02-16T07:21:39.260Z,97559.06
2023-02-16T07:24:08.503Z,97578.22
2023-02-16T07:26:39.128Z,97574.88
2023-02-16T07:29:09.011Z,97574.56
2023-02-16T07:31:38.011Z,97569.66
2023-02-16T07:34:06.400Z,97572.00
2023-02-16T07:36:35.067Z,97573.41
2023-02-16T07:39:04.125Z,97580.81
2023-02-16T07:41:33.568Z,97568.00
2023-02-16T07:44:10.138Z,97574.97
2023-02-16T07:46:39.303Z,97578.72
2023-02-16T07:49:07.615Z,97571.00
2023-02-16T07:51:36.302Z,97573.00
2023-02-16T07:54:04.797Z,97564.31
2023-02-16T07:56:35.854Z,97578.47
2023-02-16T07:59:05.224Z,97585.03
2023-02-16T08:01:35.324Z,97585.13
2023-02-16T08:04:04.537Z,97579.25
2023-02-16T08:06:33.365Z,97592.78
2023-02-16T08:09:01.963Z,97578.56
2023-02-16T08:11:30.746Z,97574.38
2023-02-16T08:14:00.203Z,97577.97
2023-02-16T08:16:31.096Z,97572.19
2023-02-16T08:19:04.192Z,97584.41
2023-02-16T08:21:34.268Z,97577.91
2023-02-16T08:24:05.558Z,97581.13
2023-02-16T08:26:36.779Z,97573.56
2023-02-16T08:29:07.733Z,97560.22
2023-02-16T08:31:38.266Z,97582.69
2023-02-16T08:34:09.509Z,97581.47
2023-02-16T08:36:40.060Z,97593.81
2023-02-16T08:39:13.551Z,97588.81
2023-02-16T08:41:43.005Z,97568.44
2023-02-16T08:44:12.354Z,97590.59
2023-02-16T08:46:43.040Z,97590.06
2023-02-16T08:49:14.589Z,97588.59
2023-02-16T08:51:45.318Z,97590.97
2023-02-16T08:54:17.335Z,97598.66
2023-02-16T08:56:48.285Z,97594.53
2023-02-16T08:59:18.852Z,97587.25
2023-02-16T09:01:48.016Z,97598.69
2023-02-16T09:04:20.834Z,97593.44
2023-02-16T09:06:50.278Z,97595.94
2023-02-16T09:09:19.142Z,97584.34
2023-02-16T09:11:48.384Z,97586.22
2023-02-16T09:14:19.443Z,97584.84
2023-02-16T09:16:48.862Z,97590.81
2023-02-16T09:19:21.153Z,97565.31
2023-02-16T09:21:52.004Z,97594.66
2023-02-16T09:24:22.390Z,97597.91
2023-02-16T09:26:52.062Z,97601.06
2023-02-16T09:29:21.830Z,97611.03
2023-02-16T09:31:50.315Z,97606.25
2023-02-16T09:34:23.086Z,97595.22
2023-02-16T09:36:52.322Z,97598.09
2023-02-16T09:39:22.006Z,97589.22
2023-02-16T09:42:04.857Z,97588.56
2023-02-16T09:44:43.128Z,97597.91
2023-02-16T09:47:22.506Z,97589.88
2023-02-16T09:49:54.012Z,97592.28
2023-02-16T09:52:31.762Z,97582.41
2023-02-16T09:55:01.761Z,97601.16
2023-02-16T09:57:43.101Z,97595.53
2023-02-16T10:00:23.406Z,97604.59
2023-02-16T10:02:57.820Z,97605.31
2023-02-16T10:05:32.928Z,97605.69
2023-02-16T10:08:05.756Z,97594.13
2023-02-16T10:10:44.435Z,97601.81
2023-02-16T10:13:22.046Z,97598.50
2023-02-16T10:15:54.145Z,97603.69
2023-02-16T10:18:28.010Z,97604.72
2023-02-16T10:21:03.978Z,97599.38
2023-02-16T10:23:41.553Z,97596.88
2023-02-16T10:26:18.294Z,97588.97
2023-02-16T10:28:49.079Z,97586.53
2023-02-16T10:31:27.175Z,97589.09
2023-02-16T10:34:10.071Z,97579.63
2023-02-16T10:36:58.578Z,97594.09
2023-02-16T10:39:36.164Z,97594.44
2023-02-16T10:42:17.053Z,97584.22
2023-02-16T10:44:48.756Z,97583.50
2023-02-16T10:47:30.507Z,97578.38
2023-02-16T10:49:59.260Z,97573.13
2023-02-16T10:52:34.693Z,97580.09
2023-02-16T10:55:03.323Z,97571.53
2023-02-16T10:57:34.254Z,97575.16
2023-02-16T11:00:06.948Z,97563.56
2023-02-16T11:02:40.073Z,97564.78
2023-02-16T11:05:32.578Z,97556.50
2023-02-16T11:08:04.149Z,97554.44
2023-02-16T11:10:38.979Z,97550.38
2023-02-16T11:13:10.093Z,97554.03
2023-02-16T11:15:40.965Z,97551.63
2023-02-16T11:18:30.167Z,97544.19
2023-02-16T11:20:59.484Z,97540.13
2023-02-16T11:23:31.520Z,97536.66
2023-02-16T11:26:03.610Z,97518.16
2023-02-16T11:28:37.347Z,97512.72
2023-02-16T11:31:31.476Z,97515.63
2023-02-16T11:34:04.887Z,97517.25
2023-02-16T11:36:37.783Z,97521.22
2023-02-16T11:39:19.917Z,97524.75
2023-02-16T11:41:52.516Z,97523.38
2023-02-16T11:44:28.098Z,97532.56
2023-02-16T11:46:57.626Z,97528.03
2023-02-16T11:49:32.868Z,97522.84
2023-02-16T11:52:01.847Z,97523.88
2023-02-16T11:54:50.252Z,97522.00
2023-02-16T11:57:25.481Z,97514.06
2023-02-16T11:59:55.977Z,97516.84
2023-02-16T12:02:56.423Z,97514.84
2023-02-16T12:05:29.824Z,97507.22
2023-02-16T12:08:19.400Z,97513.16
2023-02-16T12:11:03.199Z,97506.03
2023-02-16T12:13:43.183Z,97503.38
2023-02-16T12:16:23.173Z,97502.28
2023-02-16T12:19:05.404Z,97493.16
2023-02-16T12:21:39.034Z,97502.19
2023-02-16T12:24:20.033Z,97491.59
2023-02-16T12:26:53.488Z,97486.78
2023-02-16T12:29:39.457Z,97485.25
2023-02-16T12:32:31.388Z,97488.19
2023-02-16T12:35:33.047Z,97483.50
2023-02-16T12:38:09.813Z,97474.75
2023-02-16T12:40:51.052Z,97472.44
2023-02-16T12:43:39.405Z,97473.31
2023-02-16T12:46:16.522Z,97459.31
2023-02-16T12:48:49.734Z,97457.88
2023-02-16T12:51:22.849Z,97452.16
2023-02-16T12:53:59.149Z,97461.84
2023-02-16T12:56:32.688Z,97451.00
2023-02-16T12:59:18.943Z,97447.13
2023-02-16T13:01:51.539Z,97449.34
2023-02-16T13:04:26.253Z,97445.72
2023-02-16T13:07:00.424Z,97427.72
2023-02-16T13:09:37.319Z,97447.44
2023-02-16T13:12:12.897Z,97443.97
2023-02-16T13:14:45.225Z,97439.47
2023-02-16T13:17:19.990Z,97435.06
2023-02-16T13:19:48.779Z,97430.53
2023-02-16T13:22:44.568Z,97436.50
2023-02-16T13:25:38.253Z,97442.97
2023-02-16T13:28:25.604Z,97437.28
2023-02-16T13:31:13.023Z,97438.75
2023-02-16T13:34:07.996Z,97431.38
2023-02-16T13:36:55.218Z,97434.22
2023-02-16T13:39:36.851Z,97429.00
2023-02-16T13:42:44.956Z,97433.28
2023-02-16T13:45:17.091Z,97426.06
2023-02-16T13:47:46.979Z,97425.34
2023-02-16T13:50:33.677Z,97431.03
2023-02-16T13:53:13.603Z,97422.00
2023-02-16T13:55:42.962Z,97421.00
2023-02-16T13:58:31.335Z,97424.47
2023-02-16T14:01:00.543Z,97425.50
2023-02-16T14:03:39.303Z,97420.19
2023-02-16T14:06:34.005Z,97416.78
2023-02-16T14:09:48.750Z,97410.88
2023-02-16T14:12:21.631Z,97400.38
2023-02-16T14:15:02.573Z,97399.94
2023-02-16T14:17:34.652Z,97400.66
2023-02-16T14:20:26.047Z,97396.56
2023-02-16T14:22:57.807Z,97396.06
2023-02-16T14:25:36.144Z,97385.25
2023-02-16T14:28:08.990Z,97391.06
2023-02-16T14:30:54.199Z,97393.53
2023-02-16T14:33:31.794Z,97387.31
2023-02-16T14:36:15.163Z,97385.69
2023-02-16T14:38:48.756Z,97384.72
2023-02-16T14:41:30.625Z,97382.88
2023-02-16T14:44:38.387Z,97383.97
2023-02-16T14:47:23.230Z,97379.88
2023-02-16T14:50:09.771Z,97381.75
2023-02-16T14:52:52.900Z,97377.47
2023-02-16T14:55:45.305Z,97380.00
2023-02-16T14:58:26.823Z,97381.97
2023-02-16T15:01:04.445Z,97373.84
2023-02-16T15:03:46.261Z,97374.69
2023-02-16T15:06:23.256Z,97378.47
2023-02-16T15:08:58.241Z,97372.75
2023-02-16T15:11:35.911Z,97372.41
2023-02-16T15:14:11.116Z,97367.00
2023-02-16T15:16:42.089Z,97370.56
2023-02-16T15:19:18.317Z,97372.13
2023-02-16T15:21:47.955Z,97372.78
2023-02-16T15:24:25.015Z,97372.50
2023-02-16T15:26:58.903Z,97370.84
2023-02-16T15:29:29.369Z,97371.56
2023-02-16T15:32:00.957Z,97367.09
2023-02-16T15:34:33.293Z,97359.69
2023-02-16T15:37:21.024Z,97378.81
2023-02-16T15:40:12.148Z,97372.00
2023-02-16T15:42:44.509Z,97372.03
2023-02-16T15:45:28.035Z,97370.28
2023-02-16T15:48:15.873Z,97374.66
2023-02-16T15:50:45.891Z,97373.94
2023-02-16T15:53:17.059Z,97371.69
2023-02-16T15:55:48.399Z,97362.94
2023-02-16T15:58:17.120Z,97361.94
2023-02-16T16:00:48.124Z,97364.09
2023-02-16T16:03:18.748Z,97363.38
2023-02-16T16:06:00.428Z,97358.31
2023-02-16T16:08:31.081Z,97358.78
2023-02-16T16:11:01.228Z,97352.19
2023-02-16T16:13:32.771Z,97349.94
2023-02-16T16:16:04.588Z,97356.13
2023-02-16T16:18:40.322Z,97364.06
2023-02-16T16:21:29.609Z,97361.94
2023-02-16T16:24:01.770Z,97365.44
2023-02-16T16:26:36.244Z,97369.31
2023-02-16T16:29:05.464Z,97368.56
2023-02-16T16:31:40.712Z,97377.28
2023-02-16T16:34:12.419Z,97384.66
2023-02-16T16:36:48.855Z,97379.56
2023-02-16T16:39:26.530Z,97379.41
2023-02-16T16:42:25.211Z,97376.28
2023-02-16T16:44:58.330Z,97375.25
2023-02-16T16:47:31.659Z,97379.66
2023-02-16T16:50:02.262Z,97381.75
2023-02-16T16:52:39.739Z,97383.44
2023-02-16T16:55:26.655Z,97385.72
2023-02-16T16:57:59.734Z,97394.28
2023-02-16T17:00:34.052Z,97380.56
2023-02-16T17:03:03.487Z,97388.44
2023-02-16T17:05:32.597Z,97397.59
2023-02-16T17:08:01.079Z,97400.75
2023-02-16T17:10:30.089Z,97400.34
2023-02-16T17:13:02.239Z,97399.50
2023-02-16T17:15:39.769Z,97403.03
2023-02-16T17:18:10.615Z,97398.19
2023-02-16T17:20:39.801Z,97386.28
2023-02-16T17:23:08.130Z,97398.53
2023-02-16T17:25:37.293Z,97398.53
2023-02-16T17:28:07.293Z,97398.47
2023-02-16T17:30:36.848Z,97397.06
2023-02-16T17:33:06.986Z,97391.00
2023-02-16T17:35:37.974Z,97393.53
2023-02-16T17:38:10.901Z,97402.72
2023-02-16T17:40:41.660Z,97393.56
2023-02-16T17:43:16.156Z,97412.47
2023-02-16T17:45:45.121Z,97412.25
2023-02-16T17:48:17.092Z,97408.94
2023-02-16T17:50:46.196Z,97408.31
2023-02-16T17:53:15.994Z,97407.03
2023-02-16T17:55:45.354Z,97404.91
2023-02-16T17:58:16.770Z,97403.66
2023-02-16T18:00:46.012Z,97399.94
2023-02-16T18:03:15.827Z,97396.63
2023-02-16T18:05:44.205Z,97397.19
2023-02-16T18:08:13.971Z,97401.59
2023-02-16T18:10:44.836Z,97397.63
2023-02-16T18:13:16.345Z,97401.94
2023-02-16T18:15:47.431Z,97381.69
2023-02-16T18:18:17.953Z,97392.56
2023-02-16T18:20:46.834Z,97392.06
2023-02-16T18:23:15.491Z,97387.13
2023-02-16T18:25:44.524Z,97371.72
2023-02-16T18:28:19.918Z,97382.22
2023-02-16T18:30:49.716Z,97385.00
2023-02-16T18:33:20.790Z,97386.78
2023-02-16T18:35:50.288Z,97388.28
2023-02-16T18:38:21.433Z,97390.69
2023-02-16T18:40:53.593Z,97383.13
2023-02-16T18:43:23.962Z,97386.38
2023-02-16T18:45:53.726Z,97390.81
2023-02-16T18:48:22.723Z,97397.56
2023-02-16T18:50:52.243Z,97393.22
2023-02-16T18:53:22.191Z,97406.09
2023-02-16T18:55:50.866Z,97403.31
2023-02-16T18:58:19.649Z,97410.44
2023-02-16T19:00:49.692Z,97404.13
2023-02-16T19:03:18.127Z,97409.91
2023-02-16T19:05:46.688Z,97412.31
2023-02-16T19:08:15.247Z,97399.50
2023-02-16T19:10:45.039Z,97399.31
2023-02-16T19:13:13.383Z,97403.09
2023-02-16T19:15:42.271Z,97397.78
2023-02-16T19:18:12.892Z,97399.72
2023-02-16T19:20:41.225Z,97405.00
2023-02-16T19:23:10.399Z,97405.47
2023-02-16T19:25:38.746Z,97400.59
2023-02-16T19:28:08.325Z,97395.81
2023-02-16T19:30:36.692Z,97372.88
2023-02-16T19:33:05.473Z,97392.13
2023-02-16T19:35:35.626Z,97389.31
2023-02-16T19:38:04.125Z,97387.47
2023-02-16T19:40:34.288Z,97390.53
2023-02-16T19:43:02.634Z,97384.78
2023-02-16T19:45:32.703Z,97388.06
2023-02-16T19:48:01.005Z,97386.41
2023-02-16T19:50:29.706Z,97387.91
2023-02-16T19:52:59.810Z,97383.72
2023-02-16T19:55:28.237Z,97387.59
2023-02-16T19:57:56.582Z,97375.72
2023-02-16T20:00:24.973Z,97372.16
2023-02-16T20:02:54.358Z,97377.69
2023-02-16T20:05:22.742Z,97370.31
2023-02-16T20:07:52.121Z,97378.72
2023-02-16T20:10:22.038Z,97387.53
2023-02-16T20:12:51.992Z,97375.06
2023-02-16T20:15:20.382Z,97376.22
2023-02-16T20:17:49.332Z,97375.34
2023-02-16T20:20:18.309Z,97370.91
2023-02-16T20:22:46.678Z,97370.97
2023-02-16T20:25:16.018Z,97367.84
2023-02-16T20:27:45.831Z,97365.44
2023-02-16T20:30:20.159Z,97363.09
2023-02-16T20:32:49.020Z,97369.41
2023-02-16T20:35:18.103Z,97377.31
2023-02-16T20:37:47.370Z,97368.75
2023-02-16T20:40:16.897Z,97375.38
2023-02-16T20:42:47.472Z,97385.50
2023-02-16T20:45:15.796Z,97382.75
2023-02-16T20:47:45.570Z,97388.97
2023-02-16T20:50:14.429Z,97389.56
2023-02-16T20:52:43.354Z,97374.28
2023-02-16T20:55:11.858Z,97371.88
2023-02-16T20:57:41.652Z,97364.72
2023-02-16T21:00:17.106Z,97354.56
2023-02-16T21:02:45.878Z,97362.19
2023-02-16T21:05:14.273Z,97352.53
2023-02-16T21:07:44.217Z,97361.78
2023-02-16T21:10:13.993Z,97341.63
2023-02-16T21:12:42.455Z,97371.09
2023-02-16T21:15:12.987Z,97370.84
2023-02-16T21:17:41.383Z,97377.63
2023-02-16T21:20:11.059Z,97356.94
2023-02-16T21:22:39.433Z,97366.00
2023-02-16T21:25:08.919Z,97357.06
2023-02-16T21:27:37.278Z,97360.50
2023-02-16T21:30:07.497Z,97354.59
2023-02-16T21:32:37.265Z,97355.44
2023-02-16T21:35:07.222Z,97340.75
2023-02-16T21:37:38.553Z,97357.72
2023-02-16T21:40:26.763Z,97344.59
2023-02-16T21:42:56.128Z,97342.56
2023-02-16T21:45:24.635Z,97334.69
2023-02-16T21:48:11.896Z,97341.38
2023-02-16T21:50:41.571Z,97334.16
2023-02-16T21:53:10.694Z,97341.94
2023-02-16T21:55:57.139Z,97330.84
2023-02-16T21:58:28.461Z,97330.47
2023-02-16T22:00:57.097Z,97329.53
2023-02-16T22:03:27.352Z,97330.84
2023-02-16T22:05:56.186Z,97334.06
2023-02-16T22:08:24.532Z,97335.84
2023-02-16T22:10:54.168Z,97342.53
2023-02-16T22:13:22.516Z,97332.69
2023-02-16T22:15:51.409Z,97345.28
2023-02-16T22:18:19.700Z,97345.56
2023-02-16T22:20:50.893Z,97337.22
2023-02-16T22:23:19.189Z,97332.50
2023-02-16T22:25:48.587Z,97342.88
2023-02-16T22:28:16.886Z,97340.84
2023-02-16T22:30:46.423Z,97330.66
2023-02-16T22:33:15.317Z,97333.53
2023-02-16T22:35:43.667Z,97343.31
2023-02-16T22:38:15.265Z,97338.72
2023-02-16T22:40:43.836Z,97339.75
2023-02-16T22:43:14.008Z,97337.41
2023-02-16T22:45:42.419Z,97341.41
2023-02-16T22:48:12.371Z,97347.22
2023-02-16T22:50:41.212Z,97341.97
2023-02-16T22:53:09.596Z,97337.53
2023-02-16T22:55:42.614Z,97346.88
2023-02-16T22:58:10.925Z,97342.88
2023-02-16T23:00:40.852Z,97336.97
2023-02-16T23:03:09.730Z,97339.47
2023-02-16T23:05:39.222Z,97350.41
2023-02-16T23:08:09.211Z,97343.09
2023-02-16T23:10:40.484Z,97344.94
2023-02-16T23:13:11.419Z,97344.59
2023-02-16T23:15:39.718Z,97341.72
2023-02-16T23:18:09.138Z,97345.41
2023-02-16T23:20:37.968Z,97335.31
2023-02-16T23:23:06.277Z,97336.44
2023-02-16T23:25:35.444Z,97328.28
2023-02-16T23:28:05.708Z,97331.91
2023-02-16T23:30:35.135Z,97331.50
2023-02-16T23:33:03.476Z,97333.75
2023-02-16T23:35:32.771Z,97334.81
2023-02-16T23:38:02.784Z,97327.44
2023-02-16T23:40:31.940Z,97316.59
2023-02-16T23:43:00.369Z,97333.53
2023-02-16T23:45:31.830Z,97333.06
2023-02-16T23:48:00.289Z,97310.84
2023-02-16T23:50:29.771Z,97309.56
2023-02-16T23:52:58.515Z,97317.69
2023-02-16T23:55:26.826Z,97314.06
2023-02-16T23:57:56.804Z,97321.28
